Wednesday, May 27, 2015, 7:29 AM EDT

KPTB, Petersburg, Dinwiddie County Airport

Location: Petersburg, VA, United States Lat: 37.183
Local Time: 7:29 AM EDT (11:29 GMT) Lon: -77.517
Time Zone: US/Eastern Elev: 193 ft

Show me the last for .
Show Decoded

2015-05-27 06:55 METAR KPTB 271055Z AUTO 18003KT 10SM SCT010 22/22 A3021 RMK AO2 T02200220 =
2015-05-27 06:15 METAR KPTB 271015Z AUTO 00000KT 7SM BKN010 22/22 A3020 RMK AO2 T02150215 =
2015-05-27 05:55 METAR KPTB 270955Z AUTO 00000KT 10SM BKN012 22/22 A3019 RMK AO2 T02150215 =
2015-05-27 05:35 METAR KPTB 270935Z AUTO 18003KT 10SM BKN014 22/22 A3018 RMK AO2 T02160216 =
2015-05-27 05:15 METAR KPTB 270915Z AUTO 16004KT 10SM BKN014 22/22 A3018 RMK AO2 T02160216 =
2015-05-27 04:35 METAR KPTB 270835Z AUTO 17004KT 10SM CLR 22/22 A3018 RMK AO2 T02200220 =
2015-05-27 04:15 METAR KPTB 270815Z AUTO 15003KT 10SM CLR 22/22 A3018 RMK AO2 T02210221 =
2015-05-27 03:35 METAR KPTB 270735Z AUTO 17003KT 10SM CLR 22/22 A3018 RMK AO2 T02230223 =
2015-05-27 03:15 METAR KPTB 270715Z AUTO 18005KT 10SM CLR 23/23 A3019 RMK AO2 T02300225 =
2015-05-27 02:55 METAR KPTB 270655Z AUTO 19004KT 7SM CLR 23/23 A3020 RMK AO2 T02320225 =
2015-05-27 02:35 METAR KPTB 270635Z AUTO 17004KT 10SM SCT021 24/23 A3020 RMK AO2 T02350225 =
2015-05-27 02:15 METAR KPTB 270615Z AUTO 19006KT 10SM OVC021 24/23 A3021 RMK AO2 T02370226 =
2015-05-27 01:55 METAR KPTB 270555Z AUTO 18005KT 10SM OVC019 24/23 A3021 RMK AO2 T02400227 10267
                 20210 =
2015-05-27 01:35 METAR KPTB 270535Z AUTO 20006KT 10SM OVC019 24/23 A3021 RMK AO2 T02390227 =
2015-05-27 01:15 METAR KPTB 270515Z AUTO 17004KT 10SM OVC021 24/23 A3021 RMK AO2 T02380228 =
2015-05-27 00:55 METAR KPTB 270455Z AUTO 17004KT 10SM BKN021 24/23 A3021 RMK AO2 T02360228
                 403060157 =
2015-05-27 00:35 METAR KPTB 270435Z AUTO 18004KT 10SM SCT021 24/23 A3021 RMK AO2 T02370228 =
2015-05-26 23:55 METAR KPTB 270355Z AUTO 19005KT 10SM CLR 24/23 A3021 RMK AO2 T02400228 =
2015-05-26 23:35 METAR KPTB 270335Z AUTO 17004KT 10SM CLR 24/23 A3021 RMK AO2 T02410229 =
2015-05-26 23:15 METAR KPTB 270315Z AUTO 16004KT 10SM SCT045 24/23 A3021 RMK AO2 T02400228 =
2015-05-26 22:55 METAR KPTB 270255Z AUTO 15004KT 10SM SCT045 24/23 A3020 RMK AO2 T02400227 =
2015-05-26 22:35 METAR KPTB 270235Z AUTO 15004KT 10SM CLR 24/23 A3020 RMK AO2 T02410225 =
2015-05-26 22:15 METAR KPTB 270215Z AUTO 16004KT 10SM CLR 24/22 A3020 RMK AO2 T02420222 =
2015-05-26 21:55 METAR KPTB 270155Z AUTO 15004KT 10SM CLR 23/22 A3020 RMK AO2 T02300220 =
2015-05-26 21:35 METAR KPTB 270135Z AUTO 00000KT 10SM CLR 22/22 A3019 RMK AO2 T02160215 =
2015-05-26 21:15 METAR KPTB 270115Z AUTO 00000KT 10SM CLR 21/21 A3018 RMK AO2 T02140214 =
2015-05-26 20:55 METAR KPTB 270055Z AUTO 00000KT 10SM CLR 22/22 A3019 RMK AO2 T02210220 =
2015-05-26 20:35 METAR KPTB 270035Z AUTO 00000KT 10SM CLR 22/22 A3018 RMK AO2 T02230221 =
2015-05-26 20:15 METAR KPTB 270015Z AUTO 00000KT 10SM CLR 25/22 A3018 RMK AO2 T02460221 =
2015-05-26 19:55 METAR KPTB 262355Z AUTO 00000KT 10SM CLR 27/22 A3018 RMK AO2 60004 T02680215
                 10306 20268 =
2015-05-26 19:35 METAR KPTB 262335Z AUTO 00000KT 10SM CLR 28/21 A3018 RMK AO2 T02780213 =
2015-05-26 19:15 METAR KPTB 262315Z AUTO 19004KT 10SM CLR 29/21 A3018 RMK AO2 T02860211 =
2015-05-26 18:55 METAR KPTB 262255Z AUTO 21006KT 10SM CLR 29/22 A3018 RMK AO2 T02900215 =
2015-05-26 18:35 METAR KPTB 262235Z AUTO 22006KT 10SM CLR 29/21 A3018 RMK AO2 T02930212 =
2015-05-26 18:15 METAR KPTB 262215Z AUTO 19005KT 10SM CLR 29/21 A3018 RMK AO2 T02930211 =
2015-05-26 17:35 METAR KPTB 262135Z AUTO 22006KT 10SM CLR 30/21 A3019 RMK AO2 T02970213 =
2015-05-26 17:15 METAR KPTB 262115Z AUTO 18004KT 10SM SCT055 30/22 A3020 RMK AO2 T02970215 =
2015-05-26 16:55 METAR KPTB 262055Z AUTO 21006KT 10SM BKN055 31/22 A3020 RMK AO2 60004 T03050216
                 =
2015-05-26 16:35 METAR KPTB 262035Z AUTO 16006KT 10SM BKN055 31/22 A3020 RMK AO2 T03060221 =
2015-05-26 16:15 METAR KPTB 262015Z AUTO 19005KT 10SM SCT045 BKN055 29/21 A3021 RMK AO2 T02940214
                 =
2015-05-26 15:55 METAR KPTB 261955Z AUTO 20006KT 10SM SCT043 SCT055 30/21 A3021 RMK AO2 T02970214
                 =
2015-05-26 15:35 METAR KPTB 261935Z AUTO 22007KT 10SM SCT043 SCT065 30/21 A3022 RMK AO2 LTG DSNT
                 NW T03010213 =
2015-05-26 15:15 METAR KPTB 261915Z AUTO 19005KT 10SM SCT043 SCT050 BKN065 29/22 A3023 RMK AO2
                 T02920215 =
2015-05-26 14:55 METAR KPTB 261855Z AUTO 22006KT 10SM SCT042 SCT049 OVC065 29/22 A3024 RMK AO2
                 P0004 T02930215 =
2015-05-26 14:35 METAR KPTB 261835Z AUTO 18005KT 10SM BKN042 BKN065 29/21 A3024 RMK AO2 P0004
                 T02930213 =
2015-05-26 14:15 METAR KPTB 261815Z AUTO RMK TEMPORAIRILY INOPERATIVE =
2015-05-26 13:55 METAR KPTB 261755Z AUTO 21004KT 10SM SCT040 BKN050 OVC065 30/19 A3025 RMK AO2
                 T02960186 10296 20202 =
2015-05-26 13:35 METAR KPTB 261735Z AUTO 20006KT 10SM SCT038 BKN047 OVC065 29/19 A3026 RMK AO2
                 T02880185 =
2015-05-26 13:15 METAR KPTB 261715Z AUTO 18007KT 10SM SCT038 BKN048 OVC065 29/18 A3026 RMK AO2
                 T02900181 =
2015-05-26 12:55 METAR KPTB 261655Z AUTO 18007KT 10SM SCT036 BKN045 BKN065 29/18 A3027 RMK AO2
                 T02860181 =
2015-05-26 12:35 METAR KPTB 261635Z AUTO 19006KT 10SM SCT031 SCT039 29/19 A3027 RMK AO2 T02850187
                 =
2015-05-26 12:15 METAR KPTB 261615Z AUTO 19007KT 160V220 10SM SCT031 SCT037 28/18 A3027 RMK AO2
                 T02800183 =
2015-05-26 11:55 METAR KPTB 261555Z AUTO 21006KT 10SM CLR 28/19 A3028 RMK AO2 T02770187 =
2015-05-26 11:35 METAR KPTB 261535Z AUTO 20007KT 10SM SCT028 27/19 A3028 RMK AO2 T02740186 =
2015-05-26 11:15 METAR KPTB 261515Z AUTO 19008KT 10SM SCT022 27/19 A3029 RMK AO2 T02700188 =
2015-05-26 10:55 METAR KPTB 261455Z AUTO 17007KT 10SM BKN022 27/19 A3029 RMK AO2 T02700192 =
2015-05-26 10:35 METAR KPTB 261435Z AUTO 19005KT 10SM SCT020 26/19 A3029 RMK AO2 T02610193 =
2015-05-26 10:15 METAR KPTB 261415Z AUTO 19007KT 10SM BKN018 BKN055 26/19 A3029 RMK AO2 T02590194
                 =
2015-05-26 09:35 METAR KPTB 261335Z AUTO 20005KT 10SM OVC055 24/19 A3030 RMK AO2 T02350188 =
2015-05-26 09:15 METAR KPTB 261315Z AUTO 20005KT 10SM SCT016 OVC055 23/19 A3031 RMK AO2 T02300186
                 =
2015-05-26 08:55 METAR KPTB 261255Z AUTO 21007KT 10SM SCT014 SCT055 23/18 A3031 RMK AO2 T02310184
                 =
2015-05-26 08:35 METAR KPTB 261235Z AUTO 22005KT 10SM CLR 23/19 A3031 RMK AO2 T02250185 =
2015-05-26 08:15 METAR KPTB 261215Z AUTO 19005KT 10SM CLR 21/18 A3031 RMK AO2 T02120178 =
2015-05-26 07:55 METAR KPTB 261155Z AUTO 20005KT 10SM CLR 20/17 A3031 RMK AO2 T02010173 10201
                 20157 =
2015-05-26 07:35 METAR KPTB 261135Z AUTO 19003KT 10SM CLR 19/17 A3030 RMK AO2 T01890168 =

Support USWX by starting your Amazon purchase here.